createdAt,value
2019-01-29T00:00:46.666Z,18.02
2019-01-29T00:01:47.233Z,18.04
2019-01-29T00:02:48.500Z,18.02
2019-01-29T00:03:46.870Z,18.01
2019-01-29T00:04:49.360Z,18.01
2019-01-29T00:05:46.781Z,18.01
2019-01-29T00:06:46.688Z,18.01
2019-01-29T00:07:46.758Z,18
2019-01-29T00:08:46.704Z,17.98
2019-01-29T00:09:46.694Z,17.98
2019-01-29T00:10:46.780Z,17.98
2019-01-29T00:11:46.744Z,17.98
2019-01-29T00:12:46.679Z,17.98
2019-01-29T00:13:46.914Z,17.98
2019-01-29T00:14:47.329Z,17.97
2019-01-29T00:15:46.640Z,17.95
2019-01-29T00:16:46.833Z,17.94
2019-01-29T00:17:46.792Z,17.94
2019-01-29T00:18:46.735Z,17.93
2019-01-29T00:19:46.686Z,17.93
2019-01-29T00:20:46.750Z,17.94
2019-01-29T00:21:46.752Z,17.94
2019-01-29T00:22:46.881Z,17.93
2019-01-29T00:23:46.518Z,17.93
2019-01-29T00:24:46.817Z,17.91
2019-01-29T00:25:47.398Z,17.91
2019-01-29T00:26:47.010Z,17.89
2019-01-29T00:27:46.885Z,17.89
2019-01-29T00:28:46.656Z,17.89
2019-01-29T00:29:46.633Z,17.88
2019-01-29T00:30:46.676Z,17.89
2019-01-29T00:31:46.680Z,17.87
2019-01-29T00:32:46.726Z,17.88
2019-01-29T00:33:48.484Z,17.87
2019-01-29T00:34:46.713Z,17.87
2019-01-29T00:35:47.748Z,17.85
2019-01-29T00:36:46.541Z,17.85
2019-01-29T00:37:47.422Z,17.85
2019-01-29T00:38:47.174Z,17.82
2019-01-29T00:39:46.585Z,17.84
2019-01-29T00:40:46.579Z,17.84
2019-01-29T00:41:46.753Z,17.84
2019-01-29T00:42:46.435Z,17.84
2019-01-29T00:43:47.023Z,17.81
2019-01-29T00:44:46.754Z,17.81
2019-01-29T00:45:46.759Z,17.8
2019-01-29T00:46:46.516Z,17.8
2019-01-29T00:47:46.935Z,17.8
2019-01-29T00:48:46.959Z,17.81
2019-01-29T00:49:46.707Z,17.78
2019-01-29T00:50:46.898Z,17.78
2019-01-29T00:51:46.757Z,17.77
2019-01-29T00:52:46.464Z,17.78
2019-01-29T00:53:47.083Z,17.8
2019-01-29T00:54:47.083Z,17.78
2019-01-29T00:55:47.026Z,17.76
2019-01-29T00:56:46.712Z,17.77
2019-01-29T00:57:46.528Z,17.74
2019-01-29T00:58:46.797Z,17.77
2019-01-29T00:59:47.145Z,17.77
2019-01-29T01:00:46.631Z,17.74
2019-01-29T01:01:46.852Z,17.76
2019-01-29T01:02:46.723Z,17.74
2019-01-29T01:03:46.517Z,17.73
2019-01-29T01:04:46.789Z,17.73
2019-01-29T01:05:46.984Z,17.73
2019-01-29T01:06:46.884Z,17.71
2019-01-29T01:07:46.671Z,17.71
2019-01-29T01:08:46.691Z,17.71
2019-01-29T01:09:46.916Z,17.68
2019-01-29T01:10:47.012Z,17.68
2019-01-29T01:11:47.012Z,17.7
2019-01-29T01:12:46.829Z,17.68
2019-01-29T01:13:47.014Z,17.68
2019-01-29T01:14:46.437Z,17.7
2019-01-29T01:15:46.947Z,17.68
2019-01-29T01:16:46.953Z,17.7
2019-01-29T01:17:46.457Z,17.7
2019-01-29T01:18:46.807Z,17.64
2019-01-29T01:19:47.094Z,17.66
2019-01-29T01:20:46.487Z,17.64
2019-01-29T01:21:46.920Z,17.67
2019-01-29T01:22:51.678Z,17.66
2019-01-29T01:23:46.672Z,17.66
2019-01-29T01:24:46.924Z,17.64
2019-01-29T01:25:46.693Z,17.64
2019-01-29T01:26:46.934Z,17.61
2019-01-29T01:27:46.680Z,17.61
2019-01-29T01:28:46.856Z,17.61
2019-01-29T01:29:46.711Z,17.61
2019-01-29T01:30:46.740Z,17.61
2019-01-29T01:31:46.517Z,17.61
2019-01-29T01:32:46.801Z,17.6
2019-01-29T01:33:46.517Z,17.63
2019-01-29T01:34:46.833Z,17.6
2019-01-29T01:35:46.679Z,17.6
2019-01-29T01:36:47.094Z,17.59
2019-01-29T01:37:46.581Z,17.57
2019-01-29T01:38:46.574Z,17.57
2019-01-29T01:39:46.589Z,17.59
2019-01-29T01:40:46.698Z,17.59
2019-01-29T01:41:47.062Z,17.57
2019-01-29T01:42:46.457Z,17.59
2019-01-29T01:43:46.556Z,17.57
2019-01-29T01:44:46.955Z,17.57
2019-01-29T01:45:46.483Z,17.56
2019-01-29T01:46:46.651Z,17.57
2019-01-29T01:47:46.749Z,17.56
2019-01-29T01:48:46.484Z,17.54
2019-01-29T01:49:46.798Z,17.54
2019-01-29T01:50:46.475Z,17.56
2019-01-29T01:51:46.686Z,17.54
2019-01-29T01:52:46.973Z,17.52
2019-01-29T01:53:48.578Z,17.54
2019-01-29T01:54:46.726Z,17.52
2019-01-29T01:55:46.722Z,17.52
2019-01-29T01:56:46.726Z,17.52
2019-01-29T01:57:47.023Z,17.5
2019-01-29T01:58:46.390Z,17.5
2019-01-29T01:59:46.781Z,17.52
2019-01-29T02:00:46.466Z,17.52
2019-01-29T02:01:46.594Z,17.5
2019-01-29T02:02:46.895Z,17.5
2019-01-29T02:03:46.898Z,17.48
2019-01-29T02:04:46.673Z,17.49
2019-01-29T02:05:46.895Z,17.52
2019-01-29T02:06:47.010Z,17.49
2019-01-29T02:07:46.830Z,17.48
2019-01-29T02:08:46.692Z,17.5
2019-01-29T02:09:46.862Z,17.48
2019-01-29T02:10:46.522Z,17.49
2019-01-29T02:11:47.158Z,17.48
2019-01-29T02:12:46.496Z,17.48
2019-01-29T02:13:46.613Z,17.46
2019-01-29T02:14:46.775Z,17.48
2019-01-29T02:15:46.971Z,17.46
2019-01-29T02:16:47.358Z,17.45
2019-01-29T02:17:46.386Z,17.43
2019-01-29T02:18:46.549Z,17.43
2019-01-29T02:19:47.930Z,17.42
2019-01-29T02:20:46.427Z,17.45
2019-01-29T02:21:47.009Z,17.43
2019-01-29T02:22:46.539Z,17.42
2019-01-29T02:23:46.404Z,17.43
2019-01-29T02:24:47.163Z,17.43
2019-01-29T02:25:46.760Z,17.43
2019-01-29T02:26:46.586Z,17.45
2019-01-29T02:27:46.874Z,17.4
2019-01-29T02:28:49.328Z,17.4
2019-01-29T02:29:46.733Z,17.4
2019-01-29T02:30:46.689Z,17.42
2019-01-29T02:31:46.451Z,17.39
2019-01-29T02:32:46.947Z,17.42
2019-01-29T02:33:46.647Z,17.4
2019-01-29T02:34:46.710Z,17.39
2019-01-29T02:35:46.674Z,17.38
2019-01-29T02:36:46.791Z,17.4
2019-01-29T02:37:46.635Z,17.39
2019-01-29T02:38:46.935Z,17.36
2019-01-29T02:39:46.649Z,17.39
2019-01-29T02:40:46.658Z,17.39
2019-01-29T02:41:46.621Z,17.38
2019-01-29T02:42:46.637Z,17.4
2019-01-29T02:43:46.998Z,17.36
2019-01-29T02:44:46.543Z,17.38
2019-01-29T02:45:46.506Z,17.36
2019-01-29T02:46:48.041Z,17.35
2019-01-29T02:47:46.748Z,17.36
2019-01-29T02:48:46.585Z,17.36
2019-01-29T02:49:47.115Z,17.35
2019-01-29T02:50:46.391Z,17.35
2019-01-29T02:51:46.808Z,17.33
2019-01-29T02:52:46.573Z,17.33
2019-01-29T02:53:46.442Z,17.35
2019-01-29T02:54:46.713Z,17.35
2019-01-29T02:55:47.585Z,17.33
2019-01-29T02:56:46.569Z,17.33
2019-01-29T02:57:46.867Z,17.35
2019-01-29T02:58:47.106Z,17.31
2019-01-29T02:59:46.558Z,17.33
2019-01-29T03:00:46.995Z,17.31
2019-01-29T03:01:46.678Z,17.33
2019-01-29T03:02:46.811Z,17.32
2019-01-29T03:03:47.042Z,17.32
2019-01-29T03:04:46.485Z,17.31
2019-01-29T03:05:46.705Z,17.29
2019-01-29T03:06:47.147Z,17.29
2019-01-29T03:07:47.017Z,17.28
2019-01-29T03:08:46.804Z,17.31
2019-01-29T03:09:46.533Z,17.29
2019-01-29T03:10:46.534Z,17.31
2019-01-29T03:11:46.899Z,17.28
2019-01-29T03:12:46.725Z,17.29
2019-01-29T03:13:46.936Z,17.28
2019-01-29T03:14:46.671Z,17.28
2019-01-29T03:15:47.217Z,17.26
2019-01-29T03:16:46.594Z,17.26
2019-01-29T03:17:46.891Z,17.26
2019-01-29T03:18:47.345Z,17.25
2019-01-29T03:19:46.538Z,17.26
2019-01-29T03:20:46.650Z,17.26
2019-01-29T03:21:46.531Z,17.25
2019-01-29T03:22:46.664Z,17.25
2019-01-29T03:23:47.088Z,17.23
2019-01-29T03:24:46.747Z,17.25
2019-01-29T03:25:46.848Z,17.25
2019-01-29T03:26:46.734Z,17.25
2019-01-29T03:27:46.358Z,17.22
2019-01-29T03:28:46.812Z,17.22
2019-01-29T03:29:46.511Z,17.22
2019-01-29T03:30:46.829Z,17.21
2019-01-29T03:31:46.949Z,17.22
2019-01-29T03:32:46.671Z,17.22
2019-01-29T03:33:46.880Z,17.21
2019-01-29T03:34:46.732Z,17.22
2019-01-29T03:35:46.758Z,17.21
2019-01-29T03:36:46.786Z,17.22
2019-01-29T03:37:46.499Z,17.19
2019-01-29T03:38:46.946Z,17.19
2019-01-29T03:39:46.730Z,17.21
2019-01-29T03:40:46.660Z,17.18
2019-01-29T03:41:46.714Z,17.21
2019-01-29T03:42:46.749Z,17.18
2019-01-29T03:43:48.178Z,17.21
2019-01-29T03:44:46.629Z,17.18
2019-01-29T03:45:46.712Z,17.18
2019-01-29T03:46:46.500Z,17.21
2019-01-29T03:47:46.721Z,17.18
2019-01-29T03:48:46.458Z,17.19
2019-01-29T03:49:46.484Z,17.19
2019-01-29T03:50:46.667Z,17.18
2019-01-29T03:51:46.344Z,17.15
2019-01-29T03:52:46.562Z,17.18
2019-01-29T03:53:48.473Z,17.19
2019-01-29T03:54:46.649Z,17.15
2019-01-29T03:55:46.595Z,17.16
2019-01-29T03:56:46.671Z,17.16
2019-01-29T03:57:46.575Z,17.18
2019-01-29T03:58:48.459Z,17.16
2019-01-29T03:59:46.485Z,17.15
2019-01-29T04:00:46.412Z,17.16
2019-01-29T04:01:46.542Z,17.14
2019-01-29T04:02:46.444Z,17.15
2019-01-29T04:03:47.550Z,17.14
2019-01-29T04:04:46.852Z,17.14
2019-01-29T04:05:46.387Z,17.15
2019-01-29T04:06:46.726Z,17.14
2019-01-29T04:07:46.872Z,17.15
2019-01-29T04:08:46.913Z,17.14
2019-01-29T04:09:46.571Z,17.14
2019-01-29T04:10:46.651Z,17.12
2019-01-29T04:11:46.887Z,17.12
2019-01-29T04:12:46.777Z,17.11
2019-01-29T04:13:47.052Z,17.12
2019-01-29T04:14:46.819Z,17.12
2019-01-29T04:15:46.843Z,17.09
2019-01-29T04:16:46.727Z,17.11
2019-01-29T04:17:46.723Z,17.11
2019-01-29T04:18:46.635Z,17.09
2019-01-29T04:19:46.785Z,17.11
2019-01-29T04:20:46.790Z,17.09
2019-01-29T04:21:46.936Z,17.09
2019-01-29T04:22:46.487Z,17.11
2019-01-29T04:23:48.311Z,17.09
2019-01-29T04:24:46.898Z,17.06
2019-01-29T04:25:46.425Z,17.08
2019-01-29T04:26:46.770Z,17.06
2019-01-29T04:27:46.722Z,17.06
2019-01-29T04:28:46.908Z,17.05
2019-01-29T04:29:46.657Z,17.04
2019-01-29T04:30:47.316Z,17.08
2019-01-29T04:31:46.482Z,17.06
2019-01-29T04:32:46.884Z,17.08
2019-01-29T04:33:46.837Z,17.05
2019-01-29T04:34:47.254Z,17.08
2019-01-29T04:35:47.635Z,17.05
2019-01-29T04:36:46.862Z,17.08
2019-01-29T04:37:47.021Z,17.08
2019-01-29T04:38:46.563Z,17.05
2019-01-29T04:39:46.871Z,17.05
2019-01-29T04:40:47.017Z,17.05
2019-01-29T04:41:46.417Z,17.06
2019-01-29T04:42:46.539Z,17.05
2019-01-29T04:43:47.001Z,17.06
2019-01-29T04:44:46.432Z,17.06
2019-01-29T04:45:46.518Z,17.06
2019-01-29T04:46:46.753Z,17.04
2019-01-29T04:47:46.463Z,17.08
2019-01-29T04:48:46.738Z,17.06
2019-01-29T04:49:46.792Z,17.06
2019-01-29T04:50:46.586Z,17.05
2019-01-29T04:51:46.601Z,17.06
2019-01-29T04:52:46.778Z,17.06
2019-01-29T04:53:46.793Z,17.08
2019-01-29T04:54:46.790Z,17.09
2019-01-29T04:55:46.874Z,17.08
2019-01-29T04:56:46.713Z,17.11
2019-01-29T04:57:47.173Z,17.11
2019-01-29T04:58:46.900Z,17.11
2019-01-29T04:59:46.484Z,17.15
2019-01-29T05:00:47.960Z,17.14
2019-01-29T05:01:46.506Z,17.16
2019-01-29T05:02:46.926Z,17.19
2019-01-29T05:03:46.757Z,17.21
2019-01-29T05:04:46.526Z,17.22
2019-01-29T05:05:46.533Z,17.26
2019-01-29T05:06:46.372Z,17.22
2019-01-29T05:07:46.635Z,17.29
2019-01-29T05:08:46.893Z,17.28
2019-01-29T05:09:46.683Z,17.29
2019-01-29T05:10:46.728Z,17.33
2019-01-29T05:11:46.452Z,17.33
2019-01-29T05:12:46.517Z,17.36
2019-01-29T05:13:46.750Z,17.38
2019-01-29T05:14:46.699Z,17.4
2019-01-29T05:15:46.622Z,17.42
2019-01-29T05:16:46.718Z,17.43
2019-01-29T05:17:46.508Z,17.46
2019-01-29T05:18:46.387Z,17.46
2019-01-29T05:19:46.724Z,17.48
2019-01-29T05:20:46.596Z,17.5
2019-01-29T05:21:46.761Z,17.52
2019-01-29T05:22:46.789Z,17.53
2019-01-29T05:23:46.516Z,17.54
2019-01-29T05:24:46.862Z,17.54
2019-01-29T05:25:46.415Z,17.57
2019-01-29T05:26:46.713Z,17.61
2019-01-29T05:27:46.869Z,17.61
2019-01-29T05:28:46.535Z,17.63
2019-01-29T05:29:46.458Z,17.66
2019-01-29T05:30:46.854Z,17.67
2019-01-29T05:31:46.267Z,17.68
2019-01-29T05:32:46.807Z,17.68
2019-01-29T05:33:46.862Z,17.73
2019-01-29T05:34:46.480Z,17.73
2019-01-29T05:35:46.551Z,17.76
2019-01-29T05:36:46.556Z,17.76
2019-01-29T05:37:46.439Z,17.76
2019-01-29T05:38:46.923Z,17.78
2019-01-29T05:39:46.707Z,17.78
2019-01-29T05:40:46.942Z,17.78
2019-01-29T05:41:46.751Z,17.81
2019-01-29T05:42:46.812Z,17.84
2019-01-29T05:43:47.126Z,17.85
2019-01-29T05:44:46.920Z,17.85
2019-01-29T05:45:47.242Z,17.87
2019-01-29T05:46:47.460Z,17.87
2019-01-29T05:47:47.715Z,17.93
2019-01-29T05:48:46.718Z,17.91
2019-01-29T05:49:46.635Z,17.93
2019-01-29T05:50:46.502Z,17.93
2019-01-29T05:51:47.059Z,17.95
2019-01-29T05:52:48.646Z,17.95
2019-01-29T05:53:46.856Z,17.97
2019-01-29T05:54:46.478Z,18
2019-01-29T05:55:47.169Z,18
2019-01-29T05:56:47.778Z,18
2019-01-29T05:57:47.104Z,18.04
2019-01-29T05:58:48.019Z,18.04
2019-01-29T05:59:46.824Z,18.07
2019-01-29T06:00:48.512Z,18.04
2019-01-29T06:01:47.018Z,18.08
2019-01-29T06:02:49.039Z,18.09
2019-01-29T06:03:46.952Z,18.11
2019-01-29T06:04:46.777Z,18.11
2019-01-29T06:05:46.549Z,18.11
2019-01-29T06:06:48.502Z,18.12
2019-01-29T06:07:47.192Z,18.13
2019-01-29T06:08:46.471Z,18.15
2019-01-29T06:09:46.683Z,18.18
2019-01-29T06:10:46.763Z,18.18
2019-01-29T06:11:46.445Z,18.18
2019-01-29T06:12:46.787Z,18.18
2019-01-29T06:13:46.689Z,18.21
2019-01-29T06:14:47.566Z,18.23
2019-01-29T06:15:46.640Z,18.25
2019-01-29T06:16:46.412Z,18.28
2019-01-29T06:17:46.840Z,18.28
2019-01-29T06:18:46.627Z,18.32
2019-01-29T06:19:46.559Z,18.28
2019-01-29T06:20:46.872Z,18.33
2019-01-29T06:21:46.611Z,18.33
2019-01-29T06:22:46.646Z,18.36
2019-01-29T06:23:46.819Z,18.39
2019-01-29T06:24:47.281Z,18.36
2019-01-29T06:25:47.332Z,18.37
2019-01-29T06:26:46.437Z,18.28
2019-01-29T06:27:46.378Z,18.11
2019-01-29T06:28:46.474Z,17.95
2019-01-29T06:29:46.787Z,17.82
2019-01-29T06:30:46.753Z,17.67
2019-01-29T06:31:46.731Z,17.59
2019-01-29T06:32:46.840Z,17.48
2019-01-29T06:33:46.934Z,17.39
2019-01-29T06:34:46.773Z,17.32
2019-01-29T06:35:46.464Z,17.33
2019-01-29T06:36:46.777Z,17.32
2019-01-29T06:37:46.499Z,17.39
2019-01-29T06:38:46.785Z,17.48
2019-01-29T06:39:46.993Z,17.52
2019-01-29T06:40:46.783Z,17.54
2019-01-29T06:41:46.823Z,17.59
2019-01-29T06:42:46.721Z,17.63
2019-01-29T06:43:46.506Z,17.66
2019-01-29T06:44:46.338Z,17.68
2019-01-29T06:45:46.446Z,17.73
2019-01-29T06:46:47.125Z,17.74
2019-01-29T06:47:46.626Z,17.77
2019-01-29T06:48:46.336Z,17.78
2019-01-29T06:49:46.554Z,17.82
2019-01-29T06:50:47.426Z,17.85
2019-01-29T06:51:46.374Z,17.88
2019-01-29T06:52:46.490Z,17.93
2019-01-29T06:53:46.783Z,17.97
2019-01-29T06:54:46.372Z,18
2019-01-29T06:55:46.816Z,18.02
2019-01-29T06:56:47.424Z,18.05
2019-01-29T06:57:56.377Z,18.07
2019-01-29T06:58:46.673Z,18.12
2019-01-29T06:59:46.449Z,18.13
2019-01-29T07:00:46.519Z,18.16
2019-01-29T07:01:46.345Z,18.15
2019-01-29T07:02:46.404Z,18.19
2019-01-29T07:03:46.789Z,18.22
2019-01-29T07:04:47.267Z,18.22
2019-01-29T07:05:46.584Z,18.23
2019-01-29T07:06:46.886Z,18.26
2019-01-29T07:07:46.386Z,18.26
2019-01-29T07:08:46.473Z,18.32
2019-01-29T07:09:46.413Z,18.33
2019-01-29T07:10:47.132Z,18.33
2019-01-29T07:11:46.846Z,18.35
2019-01-29T07:12:46.919Z,18.33
2019-01-29T07:13:46.828Z,18.37
2019-01-29T07:14:46.478Z,18.39
2019-01-29T07:15:46.542Z,18.4
2019-01-29T07:16:46.468Z,18.41
2019-01-29T07:17:46.586Z,18.43
2019-01-29T07:18:46.763Z,18.44
2019-01-29T07:19:46.377Z,18.46
2019-01-29T07:20:47.092Z,18.46
2019-01-29T07:21:46.465Z,18.49
2019-01-29T07:22:46.785Z,18.47
2019-01-29T07:23:46.619Z,18.51
2019-01-29T07:24:46.343Z,18.53
2019-01-29T07:25:46.801Z,18.54
2019-01-29T07:26:46.760Z,18.53
2019-01-29T07:27:46.727Z,18.54
2019-01-29T07:28:47.056Z,18.56
2019-01-29T07:29:46.610Z,18.53
2019-01-29T07:30:46.453Z,18.56
2019-01-29T07:31:46.848Z,18.56
2019-01-29T07:32:46.657Z,18.57
2019-01-29T07:33:46.322Z,18.58
2019-01-29T07:34:46.822Z,18.62
2019-01-29T07:35:48.465Z,18.62
2019-01-29T07:36:46.962Z,18.63
2019-01-29T07:37:46.488Z,18.64
2019-01-29T07:38:46.917Z,18.67
2019-01-29T07:39:46.481Z,18.66
2019-01-29T07:40:46.820Z,18.68
2019-01-29T07:41:46.831Z,18.68
2019-01-29T07:42:46.486Z,18.68
2019-01-29T07:43:46.835Z,18.71
2019-01-29T07:44:46.874Z,18.71
2019-01-29T07:45:46.286Z,18.73
2019-01-29T07:46:46.960Z,18.75
2019-01-29T07:47:46.365Z,18.77
2019-01-29T07:48:46.997Z,18.78
2019-01-29T07:49:46.524Z,18.78
2019-01-29T07:50:46.692Z,18.8
2019-01-29T07:51:46.529Z,18.81
2019-01-29T07:52:46.464Z,18.83
2019-01-29T07:53:46.848Z,18.85
2019-01-29T07:54:51.688Z,18.84
2019-01-29T07:55:46.737Z,18.85
2019-01-29T07:56:47.300Z,18.88
2019-01-29T07:57:46.755Z,18.88
2019-01-29T07:58:47.038Z,18.88
2019-01-29T07:59:46.690Z,18.88
2019-01-29T08:00:46.879Z,18.9
2019-01-29T08:01:47.784Z,18.88
2019-01-29T08:02:46.634Z,18.91
2019-01-29T08:03:47.097Z,18.92
2019-01-29T08:04:47.702Z,18.92
2019-01-29T08:05:47.105Z,18.94
2019-01-29T08:06:46.616Z,18.95
2019-01-29T08:07:47.117Z,18.95
2019-01-29T08:08:46.434Z,18.97
2019-01-29T08:09:46.825Z,18.97
2019-01-29T08:10:46.754Z,18.99
2019-01-29T08:11:46.917Z,19.01
2019-01-29T08:12:46.584Z,18.99
2019-01-29T08:13:46.702Z,19.01
2019-01-29T08:14:46.399Z,19.01
2019-01-29T08:15:46.775Z,19.02
2019-01-29T08:16:46.763Z,19.01
2019-01-29T08:17:46.444Z,19.03
2019-01-29T08:18:46.902Z,19.06
2019-01-29T08:19:46.696Z,19.08
2019-01-29T08:20:46.811Z,19.09
2019-01-29T08:21:46.825Z,19.08
2019-01-29T08:22:46.618Z,19.09
2019-01-29T08:23:46.421Z,19.11
2019-01-29T08:25:02.471Z,19.12
2019-01-29T08:25:48.464Z,19.11
2019-01-29T08:26:46.945Z,19.12
2019-01-29T08:27:46.435Z,19.12
2019-01-29T08:28:46.357Z,19.12
2019-01-29T08:29:46.744Z,19.13
2019-01-29T08:30:46.440Z,19.16
2019-01-29T08:31:48.379Z,19.12
2019-01-29T08:32:46.906Z,19.18
2019-01-29T08:33:46.269Z,19.15
2019-01-29T08:34:46.513Z,19.19
2019-01-29T08:35:46.648Z,19.18
2019-01-29T08:36:46.723Z,19.18
2019-01-29T08:37:47.129Z,19.22
2019-01-29T08:38:47.250Z,19.22
2019-01-29T08:39:46.683Z,19.2
2019-01-29T08:40:46.477Z,19.22
2019-01-29T08:41:46.751Z,19.22
2019-01-29T08:42:46.495Z,19.25
2019-01-29T08:43:46.570Z,19.23
2019-01-29T08:44:46.777Z,19.25
2019-01-29T08:45:46.562Z,19.27
2019-01-29T08:46:46.313Z,19.27
2019-01-29T08:47:46.334Z,19.26
2019-01-29T08:48:46.281Z,19.26
2019-01-29T08:49:47.109Z,19.27
2019-01-29T08:50:46.389Z,19.29
2019-01-29T08:51:46.835Z,19.26
2019-01-29T08:52:46.664Z,19.27
2019-01-29T08:53:46.334Z,19.29
2019-01-29T08:54:46.487Z,19.3
2019-01-29T08:55:46.487Z,19.3
2019-01-29T08:56:46.326Z,19.29
2019-01-29T08:57:46.468Z,19.32
2019-01-29T08:58:46.538Z,19.32
2019-01-29T08:59:46.591Z,19.3
2019-01-29T09:00:46.870Z,19.33
2019-01-29T09:01:46.571Z,19.33
2019-01-29T09:02:48.389Z,19.35
2019-01-29T09:03:46.329Z,19.35
2019-01-29T09:04:47.090Z,19.37
2019-01-29T09:05:46.756Z,19.32
2019-01-29T09:06:46.747Z,19.33
2019-01-29T09:07:46.501Z,19.32
2019-01-29T09:08:46.402Z,19.33
2019-01-29T09:09:46.389Z,19.33
2019-01-29T09:10:46.755Z,19.32
2019-01-29T09:11:46.985Z,19.27
2019-01-29T09:12:46.519Z,19.29
2019-01-29T09:13:46.732Z,19.29
2019-01-29T09:14:46.653Z,19.3
2019-01-29T09:15:46.858Z,19.33
2019-01-29T09:16:47.005Z,19.33
2019-01-29T09:17:46.721Z,19.35
2019-01-29T09:18:46.502Z,19.36
2019-01-29T09:19:47.129Z,19.35
2019-01-29T09:20:46.743Z,19.37
2019-01-29T09:21:46.362Z,19.36
2019-01-29T09:22:47.056Z,19.35
2019-01-29T09:23:46.537Z,19.37
2019-01-29T09:24:46.742Z,19.39
2019-01-29T09:25:46.859Z,19.37
2019-01-29T09:26:46.975Z,19.37
2019-01-29T09:27:46.503Z,19.37
2019-01-29T09:28:46.776Z,19.39
2019-01-29T09:29:46.370Z,19.42
2019-01-29T09:30:46.546Z,19.4
2019-01-29T09:31:46.796Z,19.43
2019-01-29T09:32:47.108Z,19.43
2019-01-29T09:33:47.377Z,19.39
2019-01-29T09:34:46.923Z,19.4
2019-01-29T09:35:46.946Z,19.42
2019-01-29T09:36:46.870Z,19.4
2019-01-29T09:37:46.787Z,19.45
2019-01-29T09:38:46.387Z,19.45
2019-01-29T09:39:46.504Z,19.43
2019-01-29T09:40:48.470Z,19.43
2019-01-29T09:41:46.858Z,19.42
2019-01-29T09:42:47.406Z,19.43
2019-01-29T09:43:46.577Z,19.45
2019-01-29T09:44:48.316Z,19.45
2019-01-29T09:45:46.476Z,19.46
2019-01-29T09:46:48.147Z,19.47
2019-01-29T09:47:46.283Z,19.45
2019-01-29T09:48:47.035Z,19.45
2019-01-29T09:49:46.299Z,19.46
2019-01-29T09:50:46.561Z,19.47
2019-01-29T09:51:46.601Z,19.47
2019-01-29T09:52:46.414Z,19.49
2019-01-29T09:53:46.601Z,19.53
2019-01-29T09:54:46.874Z,19.5
2019-01-29T09:55:46.582Z,19.49
2019-01-29T09:56:46.621Z,19.5
2019-01-29T09:57:46.961Z,19.5
2019-01-29T09:58:46.682Z,19.53
2019-01-29T09:59:46.504Z,19.52
2019-01-29T10:00:47.126Z,19.52
2019-01-29T10:01:48.163Z,19.54
2019-01-29T10:02:46.854Z,19.52
2019-01-29T10:03:46.409Z,19.54
2019-01-29T10:04:46.670Z,19.56
2019-01-29T10:05:46.330Z,19.53
2019-01-29T10:06:46.659Z,19.52
2019-01-29T10:07:46.364Z,19.54
2019-01-29T10:08:48.414Z,19.56
2019-01-29T10:09:46.764Z,19.58
2019-01-29T10:10:46.486Z,19.54
2019-01-29T10:11:46.910Z,19.56
2019-01-29T10:12:46.653Z,19.6
2019-01-29T10:13:46.520Z,19.58
2019-01-29T10:14:47.246Z,19.6
2019-01-29T10:15:46.739Z,19.61
2019-01-29T10:16:46.571Z,19.64
2019-01-29T10:17:46.484Z,19.61
2019-01-29T10:18:47.057Z,19.58
2019-01-29T10:19:46.376Z,19.63
2019-01-29T10:20:46.926Z,19.63
2019-01-29T10:21:46.396Z,19.64
2019-01-29T10:22:46.467Z,19.63
2019-01-29T10:23:46.609Z,19.63
2019-01-29T10:24:47.391Z,19.64
2019-01-29T10:25:47.071Z,19.64
2019-01-29T10:26:47.847Z,19.65
2019-01-29T10:27:46.534Z,19.65
2019-01-29T10:28:46.890Z,19.67
2019-01-29T10:29:47.138Z,19.67
2019-01-29T10:30:46.340Z,19.67
2019-01-29T10:31:46.399Z,19.68
2019-01-29T10:32:46.748Z,19.67
2019-01-29T10:33:46.826Z,19.67
2019-01-29T10:34:46.551Z,19.71
2019-01-29T10:35:46.399Z,19.7
2019-01-29T10:36:46.652Z,19.71
2019-01-29T10:37:46.681Z,19.71
2019-01-29T10:38:46.722Z,19.71
2019-01-29T10:39:47.002Z,19.71
2019-01-29T10:40:47.196Z,19.74
2019-01-29T10:41:46.473Z,19.71
2019-01-29T10:42:48.348Z,19.74
2019-01-29T10:43:48.050Z,19.73
2019-01-29T10:44:46.619Z,19.75
2019-01-29T10:45:46.761Z,19.73
2019-01-29T10:46:46.583Z,19.75
2019-01-29T10:47:46.737Z,19.73
2019-01-29T10:48:46.488Z,19.74
2019-01-29T10:49:47.373Z,19.74
2019-01-29T10:50:46.336Z,19.77
2019-01-29T10:51:46.536Z,19.77
2019-01-29T10:52:46.659Z,19.77
2019-01-29T10:53:46.912Z,19.77
2019-01-29T10:54:46.728Z,19.77
2019-01-29T10:55:48.013Z,19.78
2019-01-29T10:56:47.553Z,19.77
2019-01-29T10:57:46.397Z,19.78
2019-01-29T10:58:46.934Z,19.78
2019-01-29T10:59:46.510Z,19.77
2019-01-29T11:00:46.397Z,19.78
2019-01-29T11:01:46.471Z,19.78
2019-01-29T11:02:46.770Z,19.78
2019-01-29T11:03:46.266Z,19.78
2019-01-29T11:04:49.490Z,19.8
2019-01-29T11:05:47.378Z,19.81
2019-01-29T11:06:47.381Z,19.78
2019-01-29T11:07:48.382Z,19.81
2019-01-29T11:08:46.324Z,19.8
2019-01-29T11:09:48.731Z,19.8
2019-01-29T11:10:46.842Z,19.84
2019-01-29T11:11:47.104Z,19.82
2019-01-29T11:12:47.135Z,19.84
2019-01-29T11:13:46.266Z,19.86
2019-01-29T11:14:46.577Z,19.85
2019-01-29T11:15:46.749Z,19.85
2019-01-29T11:16:46.373Z,19.86
2019-01-29T11:17:46.459Z,19.86
2019-01-29T11:18:46.660Z,19.85
2019-01-29T11:19:47.607Z,19.86
2019-01-29T11:20:47.814Z,19.86
2019-01-29T11:21:46.313Z,19.86
2019-01-29T11:22:46.439Z,19.88
2019-01-29T11:23:46.465Z,19.89
2019-01-29T11:24:46.457Z,19.86
2019-01-29T11:25:56.553Z,19.88
2019-01-29T11:26:46.548Z,19.91
2019-01-29T11:27:47.032Z,19.91
2019-01-29T11:28:47.136Z,19.89
2019-01-29T11:29:47.119Z,19.89
2019-01-29T11:30:46.362Z,19.91
2019-01-29T11:31:47.411Z,19.92
2019-01-29T11:32:46.516Z,19.91
2019-01-29T11:33:48.487Z,19.91
2019-01-29T11:34:46.452Z,19.93
2019-01-29T11:35:46.935Z,19.89
2019-01-29T11:36:47.372Z,19.93
2019-01-29T11:37:47.152Z,19.89
2019-01-29T11:38:46.291Z,19.92
2019-01-29T11:39:46.519Z,19.92
2019-01-29T11:40:46.680Z,19.93
2019-01-29T11:41:46.857Z,19.95
2019-01-29T11:42:47.179Z,19.95
2019-01-29T11:43:46.897Z,19.95
2019-01-29T11:44:46.379Z,19.98
2019-01-29T11:45:46.887Z,19.96
2019-01-29T11:46:47.191Z,19.96
2019-01-29T11:47:46.401Z,19.98
2019-01-29T11:48:46.763Z,19.95
2019-01-29T11:49:46.614Z,19.96
2019-01-29T11:50:46.515Z,19.96
2019-01-29T11:51:47.102Z,19.96
2019-01-29T11:52:46.481Z,19.98
2019-01-29T11:53:46.832Z,19.98
2019-01-29T11:54:47.536Z,20.01
2019-01-29T11:55:46.422Z,19.99
2019-01-29T11:56:47.100Z,19.99
2019-01-29T11:57:47.262Z,19.99
2019-01-29T11:58:48.223Z,19.96
2019-01-29T11:59:46.774Z,19.96
2019-01-29T12:00:46.266Z,19.93
2019-01-29T12:01:46.583Z,19.96
2019-01-29T12:02:46.449Z,19.95
2019-01-29T12:03:46.621Z,19.92
2019-01-29T12:04:46.323Z,19.93
2019-01-29T12:05:46.840Z,19.91
2019-01-29T12:06:46.268Z,19.92
2019-01-29T12:07:46.384Z,19.95
2019-01-29T12:08:46.900Z,19.95
2019-01-29T12:09:46.766Z,19.93
2019-01-29T12:10:46.771Z,19.96
2019-01-29T12:11:46.385Z,19.93
2019-01-29T12:12:47.721Z,19.95
2019-01-29T12:13:46.436Z,19.92
2019-01-29T12:14:46.395Z,19.95
2019-01-29T12:15:46.718Z,19.93
2019-01-29T12:16:46.828Z,19.92
2019-01-29T12:17:46.826Z,19.93
2019-01-29T12:18:46.746Z,19.93
2019-01-29T12:19:46.267Z,19.91
2019-01-29T12:20:46.419Z,19.92
2019-01-29T12:21:46.869Z,19.91
2019-01-29T12:22:46.360Z,19.92
2019-01-29T12:23:46.475Z,19.93
2019-01-29T12:24:46.509Z,19.92
2019-01-29T12:25:46.757Z,19.91
2019-01-29T12:26:46.326Z,19.92
2019-01-29T12:27:46.802Z,19.92
2019-01-29T12:28:46.403Z,19.92
2019-01-29T12:29:46.322Z,19.92
2019-01-29T12:30:46.525Z,19.91
2019-01-29T12:31:46.400Z,19.91
2019-01-29T12:32:46.469Z,19.91
2019-01-29T12:33:46.522Z,19.89
2019-01-29T12:34:46.397Z,19.89
2019-01-29T12:35:46.408Z,19.91
2019-01-29T12:36:47.586Z,19.91
2019-01-29T12:37:46.453Z,19.92
2019-01-29T12:38:46.568Z,19.92
2019-01-29T12:39:46.465Z,19.93
2019-01-29T12:40:46.441Z,19.92
2019-01-29T12:41:46.542Z,19.93
2019-01-29T12:42:46.510Z,19.96
2019-01-29T12:43:46.485Z,19.93
2019-01-29T12:44:46.227Z,19.93
2019-01-29T12:45:48.658Z,19.96
2019-01-29T12:46:46.370Z,19.96
2019-01-29T12:47:46.187Z,19.96
2019-01-29T12:48:46.319Z,19.89
2019-01-29T12:49:46.380Z,19.85
2019-01-29T12:50:46.418Z,19.84
2019-01-29T12:51:47.375Z,19.84
2019-01-29T12:52:46.682Z,19.84
2019-01-29T12:53:46.211Z,19.84
2019-01-29T12:54:46.788Z,19.85